sensor_id;sensor_type;location;lat;lon;timestamp;temperature;humidity
78289;DHT22;67539;48.752;12.922;2023-07-13T00:01:59;20.30;99.90
78289;DHT22;67539;48.752;12.922;2023-07-13T00:04:27;20.30;99.90
78289;DHT22;67539;48.752;12.922;2023-07-13T00:07:01;20.30;99.90
78289;DHT22;67539;48.752;12.922;2023-07-13T00:09:29;20.30;99.90
78289;DHT22;67539;48.752;12.922;2023-07-13T00:11:58;20.20;99.90
78289;DHT22;67539;48.752;12.922;2023-07-13T00:14:27;20.10;99.90
78289;DHT22;67539;48.752;12.922;2023-07-13T00:16:56;20.10;99.90
78289;DHT22;67539;48.752;12.922;2023-07-13T00:19:27;20.10;99.90
78289;DHT22;67539;48.752;12.922;2023-07-13T00:21:55;20.00;99.90
78289;DHT22;67539;48.752;12.922;2023-07-13T00:24:25;20.00;99.90
78289;DHT22;67539;48.752;12.922;2023-07-13T00:26:54;20.00;99.90
78289;DHT22;67539;48.752;12.922;2023-07-13T00:29:23;20.00;99.90
78289;DHT22;67539;48.752;12.922;2023-07-13T00:31:51;20.00;99.90
78289;DHT22;67539;48.752;12.922;2023-07-13T00:34:19;20.00;99.90
78289;DHT22;67539;48.752;12.922;2023-07-13T00:36:48;20.00;99.90
78289;DHT22;67539;48.752;12.922;2023-07-13T00:39:17;20.00;99.90
78289;DHT22;67539;48.752;12.922;2023-07-13T00:41:49;20.00;99.90
78289;DHT22;67539;48.752;12.922;2023-07-13T00:44:20;20.00;99.90
78289;DHT22;67539;48.752;12.922;2023-07-13T00:46:50;20.00;99.90
78289;DHT22;67539;48.752;12.922;2023-07-13T00:49:21;19.90;99.90
78289;DHT22;67539;48.752;12.922;2023-07-13T00:51:55;19.90;99.90
78289;DHT22;67539;48.752;12.922;2023-07-13T00:54:26;19.80;99.90
78289;DHT22;67539;48.752;12.922;2023-07-13T00:56:59;19.80;99.90
78289;DHT22;67539;48.752;12.922;2023-07-13T00:59:29;19.80;99.90
78289;DHT22;67539;48.752;12.922;2023-07-13T01:01:58;19.80;99.90
78289;DHT22;67539;48.752;12.922;2023-07-13T01:04:27;19.80;99.90
78289;DHT22;67539;48.752;12.922;2023-07-13T01:06:56;19.80;99.90
78289;DHT22;67539;48.752;12.922;2023-07-13T01:09:26;19.70;99.90
78289;DHT22;67539;48.752;12.922;2023-07-13T01:11:54;19.70;99.90
78289;DHT22;67539;48.752;12.922;2023-07-13T01:14:25;19.70;99.90
78289;DHT22;67539;48.752;12.922;2023-07-13T01:16:54;19.70;99.90
78289;DHT22;67539;48.752;12.922;2023-07-13T01:19:33;19.70;99.90
78289;DHT22;67539;48.752;12.922;2023-07-13T01:22:07;19.70;99.90
78289;DHT22;67539;48.752;12.922;2023-07-13T01:24:36;19.70;99.90
78289;DHT22;67539;48.752;12.922;2023-07-13T01:27:06;19.60;99.90
78289;DHT22;67539;48.752;12.922;2023-07-13T01:29:37;19.60;99.90
78289;DHT22;67539;48.752;12.922;2023-07-13T01:32:11;19.60;99.90
78289;DHT22;67539;48.752;12.922;2023-07-13T01:34:40;19.60;99.90
78289;DHT22;67539;48.752;12.922;2023-07-13T01:37:11;19.60;99.90
78289;DHT22;67539;48.752;12.922;2023-07-13T01:39:40;19.70;99.90
78289;DHT22;67539;48.752;12.922;2023-07-13T01:42:08;19.70;99.90
78289;DHT22;67539;48.752;12.922;2023-07-13T01:44:37;19.70;99.90
78289;DHT22;67539;48.752;12.922;2023-07-13T01:47:05;19.70;99.90
78289;DHT22;67539;48.752;12.922;2023-07-13T01:49:34;19.60;99.90
78289;DHT22;67539;48.752;12.922;2023-07-13T01:52:03;19.60;99.90
78289;DHT22;67539;48.752;12.922;2023-07-13T01:54:33;19.60;99.90
78289;DHT22;67539;48.752;12.922;2023-07-13T01:57:01;19.60;99.90
78289;DHT22;67539;48.752;12.922;2023-07-13T01:59:30;19.60;99.90
78289;DHT22;67539;48.752;12.922;2023-07-13T02:02:00;19.60;99.90
78289;DHT22;67539;48.752;12.922;2023-07-13T02:04:28;19.60;99.90
78289;DHT22;67539;48.752;12.922;2023-07-13T02:06:57;19.60;99.90
78289;DHT22;67539;48.752;12.922;2023-07-13T02:09:25;19.60;99.90
78289;DHT22;67539;48.752;12.922;2023-07-13T02:11:55;19.60;99.90
78289;DHT22;67539;48.752;12.922;2023-07-13T02:14:29;19.70;99.90
78289;DHT22;67539;48.752;12.922;2023-07-13T02:16:58;19.60;99.90
78289;DHT22;67539;48.752;12.922;2023-07-13T02:19:26;19.60;99.90
78289;DHT22;67539;48.752;12.922;2023-07-13T02:21:55;19.70;99.90
78289;DHT22;67539;48.752;12.922;2023-07-13T02:24:23;19.70;99.90
78289;DHT22;67539;48.752;12.922;2023-07-13T02:26:51;19.70;99.90
78289;DHT22;67539;48.752;12.922;2023-07-13T02:29:21;19.70;99.90
78289;DHT22;67539;48.752;12.922;2023-07-13T02:31:49;19.70;99.90
78289;DHT22;67539;48.752;12.922;2023-07-13T02:34:17;19.70;99.90
78289;DHT22;67539;48.752;12.922;2023-07-13T02:36:46;19.70;99.90
78289;DHT22;67539;48.752;12.922;2023-07-13T02:39:14;19.80;99.90
78289;DHT22;67539;48.752;12.922;2023-07-13T02:41:42;19.80;99.90
78289;DHT22;67539;48.752;12.922;2023-07-13T02:44:13;19.80;99.90
78289;DHT22;67539;48.752;12.922;2023-07-13T02:46:43;19.80;99.90
78289;DHT22;67539;48.752;12.922;2023-07-13T02:49:13;19.90;99.90
78289;DHT22;67539;48.752;12.922;2023-07-13T02:51:41;19.80;99.90
78289;DHT22;67539;48.752;12.922;2023-07-13T02:54:10;19.80;99.90
78289;DHT22;67539;48.752;12.922;2023-07-13T02:56:40;19.80;99.90
78289;DHT22;67539;48.752;12.922;2023-07-13T02:59:10;19.80;99.90
78289;DHT22;67539;48.752;12.922;2023-07-13T03:01:39;19.80;99.90
78289;DHT22;67539;48.752;12.922;2023-07-13T03:04:09;19.70;99.90
78289;DHT22;67539;48.752;12.922;2023-07-13T03:06:37;19.70;99.90
78289;DHT22;67539;48.752;12.922;2023-07-13T03:09:05;19.70;99.90
78289;DHT22;67539;48.752;12.922;2023-07-13T03:11:38;19.70;99.90
78289;DHT22;67539;48.752;12.922;2023-07-13T03:14:26;19.70;99.90
78289;DHT22;67539;48.752;12.922;2023-07-13T03:16:55;19.70;99.90
78289;DHT22;67539;48.752;12.922;2023-07-13T03:19:27;19.60;99.90
78289;DHT22;67539;48.752;12.922;2023-07-13T03:21:56;19.60;99.90
78289;DHT22;67539;48.752;12.922;2023-07-13T03:24:24;19.70;99.90
78289;DHT22;67539;48.752;12.922;2023-07-13T03:26:53;19.70;99.90
78289;DHT22;67539;48.752;12.922;2023-07-13T03:29:22;19.70;99.90
78289;DHT22;67539;48.752;12.922;2023-07-13T03:31:51;19.70;99.90
78289;DHT22;67539;48.752;12.922;2023-07-13T03:34:22;19.80;99.90
78289;DHT22;67539;48.752;12.922;2023-07-13T03:36:53;19.70;99.90
78289;DHT22;67539;48.752;12.922;2023-07-13T03:39:22;19.70;99.90
78289;DHT22;67539;48.752;12.922;2023-07-13T03:41:54;19.80;99.90
78289;DHT22;67539;48.752;12.922;2023-07-13T03:44:22;19.70;99.90
78289;DHT22;67539;48.752;12.922;2023-07-13T03:46:54;19.70;99.90
78289;DHT22;67539;48.752;12.922;2023-07-13T03:49:23;19.80;99.90
78289;DHT22;67539;48.752;12.922;2023-07-13T03:51:52;19.80;99.90
78289;DHT22;67539;48.752;12.922;2023-07-13T03:54:21;19.80;99.90
78289;DHT22;67539;48.752;12.922;2023-07-13T03:56:49;19.80;99.90
78289;DHT22;67539;48.752;12.922;2023-07-13T03:59:18;19.80;99.90
78289;DHT22;67539;48.752;12.922;2023-07-13T04:01:47;19.80;99.90
78289;DHT22;67539;48.752;12.922;2023-07-13T04:04:15;19.80;99.90
78289;DHT22;67539;48.752;12.922;2023-07-13T04:06:43;19.80;99.90
78289;DHT22;67539;48.752;12.922;2023-07-13T04:09:13;19.90;99.90
78289;DHT22;67539;48.752;12.922;2023-07-13T04:11:41;19.80;99.90
78289;DHT22;67539;48.752;12.922;2023-07-13T04:14:10;19.80;99.90
78289;DHT22;67539;48.752;12.922;2023-07-13T04:16:38;19.80;99.90
78289;DHT22;67539;48.752;12.922;2023-07-13T04:19:07;19.80;99.90
78289;DHT22;67539;48.752;12.922;2023-07-13T04:21:37;19.80;99.90
78289;DHT22;67539;48.752;12.922;2023-07-13T04:24:05;19.80;99.90
78289;DHT22;67539;48.752;12.922;2023-07-13T04:26:36;19.80;99.90
78289;DHT22;67539;48.752;12.922;2023-07-13T04:29:05;19.90;99.90
78289;DHT22;67539;48.752;12.922;2023-07-13T04:31:34;19.90;99.90
78289;DHT22;67539;48.752;12.922;2023-07-13T04:34:02;19.90;99.90
78289;DHT22;67539;48.752;12.922;2023-07-13T04:36:30;19.90;99.90
78289;DHT22;67539;48.752;12.922;2023-07-13T04:38:59;19.90;99.90
78289;DHT22;67539;48.752;12.922;2023-07-13T04:41:27;19.90;99.90
78289;DHT22;67539;48.752;12.922;2023-07-13T04:43:57;19.90;99.90
78289;DHT22;67539;48.752;12.922;2023-07-13T04:46:25;19.80;99.90
78289;DHT22;67539;48.752;12.922;2023-07-13T04:48:54;19.80;99.90
78289;DHT22;67539;48.752;12.922;2023-07-13T04:51:22;19.80;99.90
78289;DHT22;67539;48.752;12.922;2023-07-13T04:53:50;19.80;99.90
78289;DHT22;67539;48.752;12.922;2023-07-13T04:56:25;19.80;99.90
78289;DHT22;67539;48.752;12.922;2023-07-13T04:58:53;19.80;99.90
78289;DHT22;67539;48.752;12.922;2023-07-13T05:01:23;19.90;99.90
78289;DHT22;67539;48.752;12.922;2023-07-13T05:03:52;19.90;99.90
78289;DHT22;67539;48.752;12.922;2023-07-13T05:06:22;19.90;99.90
78289;DHT22;67539;48.752;12.922;2023-07-13T05:08:50;20.00;99.90
78289;DHT22;67539;48.752;12.922;2023-07-13T05:11:18;20.00;99.90
78289;DHT22;67539;48.752;12.922;2023-07-13T05:13:46;20.10;99.90
78289;DHT22;67539;48.752;12.922;2023-07-13T05:16:14;20.10;99.90
78289;DHT22;67539;48.752;12.922;2023-07-13T05:18:44;20.20;99.90
78289;DHT22;67539;48.752;12.922;2023-07-13T05:21:12;20.20;99.90
78289;DHT22;67539;48.752;12.922;2023-07-13T05:23:41;20.30;99.90
78289;DHT22;67539;48.752;12.922;2023-07-13T05:26:10;20.30;99.90
78289;DHT22;67539;48.752;12.922;2023-07-13T05:28:38;20.30;99.90
78289;DHT22;67539;48.752;12.922;2023-07-13T05:31:07;20.40;99.90
78289;DHT22;67539;48.752;12.922;2023-07-13T05:33:37;20.40;99.90
78289;DHT22;67539;48.752;12.922;2023-07-13T05:36:07;20.40;99.90
78289;DHT22;67539;48.752;12.922;2023-07-13T05:38:35;20.30;99.90
78289;DHT22;67539;48.752;12.922;2023-07-13T05:41:03;20.30;99.90
78289;DHT22;67539;48.752;12.922;2023-07-13T05:43:32;20.30;99.90
78289;DHT22;67539;48.752;12.922;2023-07-13T05:46:00;20.20;99.90
78289;DHT22;67539;48.752;12.922;2023-07-13T05:48:28;20.20;99.90
78289;DHT22;67539;48.752;12.922;2023-07-13T05:50:56;20.20;99.90
78289;DHT22;67539;48.752;12.922;2023-07-13T05:53:27;20.20;99.90
78289;DHT22;67539;48.752;12.922;2023-07-13T05:55:55;20.20;99.90
78289;DHT22;67539;48.752;12.922;2023-07-13T05:58:27;20.20;99.90
78289;DHT22;67539;48.752;12.922;2023-07-13T06:01:01;20.30;99.90
78289;DHT22;67539;48.752;12.922;2023-07-13T06:03:30;20.30;99.90
78289;DHT22;67539;48.752;12.922;2023-07-13T06:05:58;20.30;99.90
78289;DHT22;67539;48.752;12.922;2023-07-13T06:08:29;20.30;99.90
78289;DHT22;67539;48.752;12.922;2023-07-13T06:11:02;20.40;99.90
78289;DHT22;67539;48.752;12.922;2023-07-13T06:13:30;20.30;99.90
78289;DHT22;67539;48.752;12.922;2023-07-13T06:15:58;20.30;99.90
78289;DHT22;67539;48.752;12.922;2023-07-13T06:18:27;20.30;99.90
78289;DHT22;67539;48.752;12.922;2023-07-13T06:20:55;20.30;99.90
78289;DHT22;67539;48.752;12.922;2023-07-13T06:23:23;20.30;99.90
78289;DHT22;67539;48.752;12.922;2023-07-13T06:25:53;20.30;99.90
78289;DHT22;67539;48.752;12.922;2023-07-13T06:28:21;20.30;99.90
78289;DHT22;67539;48.752;12.922;2023-07-13T06:30:49;20.20;99.90
78289;DHT22;67539;48.752;12.922;2023-07-13T06:33:18;20.20;99.90
78289;DHT22;67539;48.752;12.922;2023-07-13T06:35:46;20.30;99.90
78289;DHT22;67539;48.752;12.922;2023-07-13T06:38:14;20.30;99.90
78289;DHT22;67539;48.752;12.922;2023-07-13T06:40:42;20.20;99.90
78289;DHT22;67539;48.752;12.922;2023-07-13T06:43:13;20.20;99.90
78289;DHT22;67539;48.752;12.922;2023-07-13T06:45:43;20.20;99.90
78289;DHT22;67539;48.752;12.922;2023-07-13T06:51:28;20.30;99.90
78289;DHT22;67539;48.752;12.922;2023-07-13T06:53:56;20.30;99.90
78289;DHT22;67539;48.752;12.922;2023-07-13T06:56:24;20.30;99.90
78289;DHT22;67539;48.752;12.922;2023-07-13T06:58:54;20.20;99.90
78289;DHT22;67539;48.752;12.922;2023-07-13T07:01:22;20.20;99.90
78289;DHT22;67539;48.752;12.922;2023-07-13T07:03:50;20.20;99.90
78289;DHT22;67539;48.752;12.922;2023-07-13T07:06:20;20.20;99.90
78289;DHT22;67539;48.752;12.922;2023-07-13T07:08:50;20.20;99.90
78289;DHT22;67539;48.752;12.922;2023-07-13T07:11:20;20.20;99.90
78289;DHT22;67539;48.752;12.922;2023-07-13T07:13:49;20.20;99.90
78289;DHT22;67539;48.752;12.922;2023-07-13T07:16:19;20.20;99.90
78289;DHT22;67539;48.752;12.922;2023-07-13T07:18:47;20.20;99.90
78289;DHT22;67539;48.752;12.922;2023-07-13T07:21:15;20.20;99.90
78289;DHT22;67539;48.752;12.922;2023-07-13T07:23:44;20.30;99.90
78289;DHT22;67539;48.752;12.922;2023-07-13T07:26:12;20.30;99.90
78289;DHT22;67539;48.752;12.922;2023-07-13T07:28:40;20.40;99.90
78289;DHT22;67539;48.752;12.922;2023-07-13T07:31:14;20.40;99.90
78289;DHT22;67539;48.752;12.922;2023-07-13T07:33:46;20.50;99.90
78289;DHT22;67539;48.752;12.922;2023-07-13T07:36:16;20.50;99.90
78289;DHT22;67539;48.752;12.922;2023-07-13T07:38:47;20.50;99.90
78289;DHT22;67539;48.752;12.922;2023-07-13T07:41:15;20.40;99.90
78289;DHT22;67539;48.752;12.922;2023-07-13T07:43:46;20.40;99.90
78289;DHT22;67539;48.752;12.922;2023-07-13T07:46:14;20.40;99.90
78289;DHT22;67539;48.752;12.922;2023-07-13T07:48:42;20.50;99.90
78289;DHT22;67539;48.752;12.922;2023-07-13T07:51:11;20.50;99.90
78289;DHT22;67539;48.752;12.922;2023-07-13T07:53:39;20.60;99.90
78289;DHT22;67539;48.752;12.922;2023-07-13T07:56:07;20.60;99.90
78289;DHT22;67539;48.752;12.922;2023-07-13T07:58:39;20.60;99.90
78289;DHT22;67539;48.752;12.922;2023-07-13T08:01:10;20.70;99.90
78289;DHT22;67539;48.752;12.922;2023-07-13T08:03:41;20.70;99.90
78289;DHT22;67539;48.752;12.922;2023-07-13T08:06:13;20.80;99.90
78289;DHT22;67539;48.752;12.922;2023-07-13T08:09:01;20.80;99.90
78289;DHT22;67539;48.752;12.922;2023-07-13T08:11:31;20.90;99.90
78289;DHT22;67539;48.752;12.922;2023-07-13T08:14:02;21.10;99.90
78289;DHT22;67539;48.752;12.922;2023-07-13T08:16:30;21.30;99.90
78289;DHT22;67539;48.752;12.922;2023-07-13T08:19:00;21.40;99.90
78289;DHT22;67539;48.752;12.922;2023-07-13T08:21:29;21.60;99.90
78289;DHT22;67539;48.752;12.922;2023-07-13T08:23:57;21.70;99.90
78289;DHT22;67539;48.752;12.922;2023-07-13T08:26:25;21.70;99.90
78289;DHT22;67539;48.752;12.922;2023-07-13T08:28:53;21.90;99.90
78289;DHT22;67539;48.752;12.922;2023-07-13T08:31:21;21.90;99.90
78289;DHT22;67539;48.752;12.922;2023-07-13T08:33:49;22.00;99.90
78289;DHT22;67539;48.752;12.922;2023-07-13T08:36:17;22.00;99.90
78289;DHT22;67539;48.752;12.922;2023-07-13T08:38:47;22.10;99.90
78289;DHT22;67539;48.752;12.922;2023-07-13T08:41:17;22.10;99.90
78289;DHT22;67539;48.752;12.922;2023-07-13T08:43:49;22.20;99.90
78289;DHT22;67539;48.752;12.922;2023-07-13T08:46:19;22.30;99.90
78289;DHT22;67539;48.752;12.922;2023-07-13T08:48:57;22.40;99.90
78289;DHT22;67539;48.752;12.922;2023-07-13T08:51:35;22.50;97.80
78289;DHT22;67539;48.752;12.922;2023-07-13T08:54:16;22.60;96.20
78289;DHT22;67539;48.752;12.922;2023-07-13T08:56:46;22.60;94.90
78289;DHT22;67539;48.752;12.922;2023-07-13T08:59:18;22.70;94.50
78289;DHT22;67539;48.752;12.922;2023-07-13T09:02:16;22.60;93.90
78289;DHT22;67539;48.752;12.922;2023-07-13T09:04:52;22.70;93.00
78289;DHT22;67539;48.752;12.922;2023-07-13T09:07:29;22.80;92.10
78289;DHT22;67539;48.752;12.922;2023-07-13T09:10:08;22.90;92.40
78289;DHT22;67539;48.752;12.922;2023-07-13T09:12:46;23.00;93.30
78289;DHT22;67539;48.752;12.922;2023-07-13T09:15:23;23.00;92.70
78289;DHT22;67539;48.752;12.922;2023-07-13T09:17:56;23.30;91.70
78289;DHT22;67539;48.752;12.922;2023-07-13T09:20:28;23.40;87.90
78289;DHT22;67539;48.752;12.922;2023-07-13T09:23:00;23.50;86.50
78289;DHT22;67539;48.752;12.922;2023-07-13T09:25:32;23.60;82.60
78289;DHT22;67539;48.752;12.922;2023-07-13T09:28:03;23.60;82.10
78289;DHT22;67539;48.752;12.922;2023-07-13T09:30:45;23.70;83.10
78289;DHT22;67539;48.752;12.922;2023-07-13T09:33:14;23.90;74.70
78289;DHT22;67539;48.752;12.922;2023-07-13T09:35:42;23.80;76.80
78289;DHT22;67539;48.752;12.922;2023-07-13T09:38:13;23.90;75.90
78289;DHT22;67539;48.752;12.922;2023-07-13T09:40:51;24.00;73.50
78289;DHT22;67539;48.752;12.922;2023-07-13T09:43:21;23.80;73.80
78289;DHT22;67539;48.752;12.922;2023-07-13T09:45:49;23.80;74.40
78289;DHT22;67539;48.752;12.922;2023-07-13T09:48:17;23.90;75.80
78289;DHT22;67539;48.752;12.922;2023-07-13T09:50:46;24.00;76.40
78289;DHT22;67539;48.752;12.922;2023-07-13T09:53:16;24.20;77.60
78289;DHT22;67539;48.752;12.922;2023-07-13T09:55:47;24.20;76.40
78289;DHT22;67539;48.752;12.922;2023-07-13T09:58:25;24.20;77.40
78289;DHT22;67539;48.752;12.922;2023-07-13T10:00:55;24.20;75.10
78289;DHT22;67539;48.752;12.922;2023-07-13T10:03:30;24.00;74.90
78289;DHT22;67539;48.752;12.922;2023-07-13T10:06:14;23.90;72.20
78289;DHT22;67539;48.752;12.922;2023-07-13T10:08:44;23.70;72.70
78289;DHT22;67539;48.752;12.922;2023-07-13T10:11:18;23.70;74.70
78289;DHT22;67539;48.752;12.922;2023-07-13T10:13:51;23.70;77.50
78289;DHT22;67539;48.752;12.922;2023-07-13T10:16:21;23.70;78.60
78289;DHT22;67539;48.752;12.922;2023-07-13T10:18:55;23.70;80.20
78289;DHT22;67539;48.752;12.922;2023-07-13T10:21:28;23.60;78.60
78289;DHT22;67539;48.752;12.922;2023-07-13T10:24:14;23.60;79.20
78289;DHT22;67539;48.752;12.922;2023-07-13T10:26:48;23.50;81.10
78289;DHT22;67539;48.752;12.922;2023-07-13T10:29:16;23.40;82.20
78289;DHT22;67539;48.752;12.922;2023-07-13T10:31:45;23.20;82.60
78289;DHT22;67539;48.752;12.922;2023-07-13T10:34:13;23.00;83.60
78289;DHT22;67539;48.752;12.922;2023-07-13T10:36:43;22.90;84.80
78289;DHT22;67539;48.752;12.922;2023-07-13T10:39:16;22.80;84.80
78289;DHT22;67539;48.752;12.922;2023-07-13T10:41:49;22.80;85.60
78289;DHT22;67539;48.752;12.922;2023-07-13T10:44:21;22.80;85.90
78289;DHT22;67539;48.752;12.922;2023-07-13T10:46:55;22.70;86.30
78289;DHT22;67539;48.752;12.922;2023-07-13T10:49:25;22.60;86.90
78289;DHT22;67539;48.752;12.922;2023-07-13T10:51:54;22.60;86.80
78289;DHT22;67539;48.752;12.922;2023-07-13T10:54:30;22.60;88.80
78289;DHT22;67539;48.752;12.922;2023-07-13T10:57:16;22.70;89.90
78289;DHT22;67539;48.752;12.922;2023-07-13T10:59:47;22.90;90.10
78289;DHT22;67539;48.752;12.922;2023-07-13T11:02:26;23.00;90.50
78289;DHT22;67539;48.752;12.922;2023-07-13T11:04:56;23.00;90.00
78289;DHT22;67539;48.752;12.922;2023-07-13T11:07:28;22.90;90.10
78289;DHT22;67539;48.752;12.922;2023-07-13T11:09:57;22.90;90.50
78289;DHT22;67539;48.752;12.922;2023-07-13T11:15:12;23.10;90.70
78289;DHT22;67539;48.752;12.922;2023-07-13T11:17:49;23.20;90.10
78289;DHT22;67539;48.752;12.922;2023-07-13T11:20:23;23.30;87.70
78289;DHT22;67539;48.752;12.922;2023-07-13T11:23:15;23.40;88.70
78289;DHT22;67539;48.752;12.922;2023-07-13T11:25:45;23.50;90.10
78289;DHT22;67539;48.752;12.922;2023-07-13T11:28:21;23.60;87.40
78289;DHT22;67539;48.752;12.922;2023-07-13T11:31:00;23.70;86.50
78289;DHT22;67539;48.752;12.922;2023-07-13T11:33:50;23.70;84.90
78289;DHT22;67539;48.752;12.922;2023-07-13T11:36:19;23.70;84.20
78289;DHT22;67539;48.752;12.922;2023-07-13T11:38:57;23.70;83.70
78289;DHT22;67539;48.752;12.922;2023-07-13T11:41:28;23.90;86.80
78289;DHT22;67539;48.752;12.922;2023-07-13T11:44:10;24.10;87.50
78289;DHT22;67539;48.752;12.922;2023-07-13T11:46:38;24.10;84.90
78289;DHT22;67539;48.752;12.922;2023-07-13T11:49:07;24.10;83.40
78289;DHT22;67539;48.752;12.922;2023-07-13T11:51:36;24.10;86.50
78289;DHT22;67539;48.752;12.922;2023-07-13T11:54:06;24.30;83.20
78289;DHT22;67539;48.752;12.922;2023-07-13T11:56:36;24.40;84.10
78289;DHT22;67539;48.752;12.922;2023-07-13T11:59:07;24.40;83.30
78289;DHT22;67539;48.752;12.922;2023-07-13T12:01:43;24.50;81.70
78289;DHT22;67539;48.752;12.922;2023-07-13T12:04:20;24.60;80.20
78289;DHT22;67539;48.752;12.922;2023-07-13T12:06:55;24.80;81.30
78289;DHT22;67539;48.752;12.922;2023-07-13T12:09:26;24.90;83.10
78289;DHT22;67539;48.752;12.922;2023-07-13T12:11:57;25.10;78.80
78289;DHT22;67539;48.752;12.922;2023-07-13T12:14:28;25.10;79.50
78289;DHT22;67539;48.752;12.922;2023-07-13T12:16:56;25.20;78.60
78289;DHT22;67539;48.752;12.922;2023-07-13T12:19:26;25.00;77.80
78289;DHT22;67539;48.752;12.922;2023-07-13T12:21:56;24.90;77.00
78289;DHT22;67539;48.752;12.922;2023-07-13T12:24:25;24.90;78.50
78289;DHT22;67539;48.752;12.922;2023-07-13T12:26:58;24.90;79.00
78289;DHT22;67539;48.752;12.922;2023-07-13T12:29:28;25.00;77.30
78289;DHT22;67539;48.752;12.922;2023-07-13T12:31:57;25.10;79.50
78289;DHT22;67539;48.752;12.922;2023-07-13T12:34:26;25.40;80.50
78289;DHT22;67539;48.752;12.922;2023-07-13T12:36:56;25.70;78.70
78289;DHT22;67539;48.752;12.922;2023-07-13T12:39:32;25.90;76.90
78289;DHT22;67539;48.752;12.922;2023-07-13T12:42:18;25.90;74.50
78289;DHT22;67539;48.752;12.922;2023-07-13T12:44:49;25.80;74.70
78289;DHT22;67539;48.752;12.922;2023-07-13T12:47:19;25.70;71.90
78289;DHT22;67539;48.752;12.922;2023-07-13T12:49:50;25.60;74.90
78289;DHT22;67539;48.752;12.922;2023-07-13T12:52:23;25.50;72.80
78289;DHT22;67539;48.752;12.922;2023-07-13T12:54:54;25.50;72.60
78289;DHT22;67539;48.752;12.922;2023-07-13T12:57:32;25.50;71.90
78289;DHT22;67539;48.752;12.922;2023-07-13T13:00:22;25.40;70.80
78289;DHT22;67539;48.752;12.922;2023-07-13T13:02:53;25.30;72.20
78289;DHT22;67539;48.752;12.922;2023-07-13T13:05:41;25.40;73.20
78289;DHT22;67539;48.752;12.922;2023-07-13T13:08:12;25.60;69.60
78289;DHT22;67539;48.752;12.922;2023-07-13T13:10:41;25.50;67.20
78289;DHT22;67539;48.752;12.922;2023-07-13T13:13:09;25.60;66.90
78289;DHT22;67539;48.752;12.922;2023-07-13T13:15:39;25.60;66.30
78289;DHT22;67539;48.752;12.922;2023-07-13T13:18:15;25.80;67.40
78289;DHT22;67539;48.752;12.922;2023-07-13T13:20:44;26.00;66.40
78289;DHT22;67539;48.752;12.922;2023-07-13T13:23:14;25.90;63.50
78289;DHT22;67539;48.752;12.922;2023-07-13T13:25:45;25.80;61.60
78289;DHT22;67539;48.752;12.922;2023-07-13T13:28:15;25.80;63.70
78289;DHT22;67539;48.752;12.922;2023-07-13T13:30:47;26.00;64.20
78289;DHT22;67539;48.752;12.922;2023-07-13T13:33:18;26.10;62.40
78289;DHT22;67539;48.752;12.922;2023-07-13T13:35:47;26.10;62.00
78289;DHT22;67539;48.752;12.922;2023-07-13T13:38:17;25.90;61.80
78289;DHT22;67539;48.752;12.922;2023-07-13T13:40:45;25.70;62.30
78289;DHT22;67539;48.752;12.922;2023-07-13T13:43:17;25.60;63.00
78289;DHT22;67539;48.752;12.922;2023-07-13T13:45:47;25.50;62.80
78289;DHT22;67539;48.752;12.922;2023-07-13T13:48:18;25.70;61.40
78289;DHT22;67539;48.752;12.922;2023-07-13T13:50:47;25.90;63.60
78289;DHT22;67539;48.752;12.922;2023-07-13T13:53:15;26.20;63.20
78289;DHT22;67539;48.752;12.922;2023-07-13T13:55:43;26.30;63.20
78289;DHT22;67539;48.752;12.922;2023-07-13T13:58:11;26.30;61.70
78289;DHT22;67539;48.752;12.922;2023-07-13T14:00:39;26.20;62.30
78289;DHT22;67539;48.752;12.922;2023-07-13T14:03:15;26.10;60.50
78289;DHT22;67539;48.752;12.922;2023-07-13T14:05:45;26.10;61.10
78289;DHT22;67539;48.752;12.922;2023-07-13T14:08:15;26.00;59.50
78289;DHT22;67539;48.752;12.922;2023-07-13T14:10:45;25.90;60.00
78289;DHT22;67539;48.752;12.922;2023-07-13T14:13:16;26.00;61.00
78289;DHT22;67539;48.752;12.922;2023-07-13T14:15:46;26.30;60.70
78289;DHT22;67539;48.752;12.922;2023-07-13T14:18:15;26.60;59.80
78289;DHT22;67539;48.752;12.922;2023-07-13T14:20:46;26.70;58.40
78289;DHT22;67539;48.752;12.922;2023-07-13T14:23:15;26.50;57.30
78289;DHT22;67539;48.752;12.922;2023-07-13T14:25:44;26.60;58.30
78289;DHT22;67539;48.752;12.922;2023-07-13T14:28:21;27.60;57.10
78289;DHT22;67539;48.752;12.922;2023-07-13T14:30:51;28.10;55.40
78289;DHT22;67539;48.752;12.922;2023-07-13T14:33:23;28.70;54.80
78289;DHT22;67539;48.752;12.922;2023-07-13T14:35:52;29.30;53.20
78289;DHT22;67539;48.752;12.922;2023-07-13T14:38:20;29.60;51.60
78289;DHT22;67539;48.752;12.922;2023-07-13T14:40:48;30.00;51.80
78289;DHT22;67539;48.752;12.922;2023-07-13T14:43:17;29.50;50.00
78289;DHT22;67539;48.752;12.922;2023-07-13T14:45:47;29.00;51.10
78289;DHT22;67539;48.752;12.922;2023-07-13T14:48:19;28.60;50.50
78289;DHT22;67539;48.752;12.922;2023-07-13T14:50:53;28.70;51.00
78289;DHT22;67539;48.752;12.922;2023-07-13T14:53:24;28.60;51.00
78289;DHT22;67539;48.752;12.922;2023-07-13T14:55:52;28.60;50.90
78289;DHT22;67539;48.752;12.922;2023-07-13T14:58:20;28.80;50.60
78289;DHT22;67539;48.752;12.922;2023-07-13T15:00:48;28.60;51.00
78289;DHT22;67539;48.752;12.922;2023-07-13T15:03:19;28.80;50.50
78289;DHT22;67539;48.752;12.922;2023-07-13T15:05:51;28.70;50.40
78289;DHT22;67539;48.752;12.922;2023-07-13T15:08:20;28.50;51.30
78289;DHT22;67539;48.752;12.922;2023-07-13T15:10:48;28.50;50.70
78289;DHT22;67539;48.752;12.922;2023-07-13T15:13:17;29.00;49.30
78289;DHT22;67539;48.752;12.922;2023-07-13T15:15:47;29.70;48.70
78289;DHT22;67539;48.752;12.922;2023-07-13T15:18:18;30.20;47.60
78289;DHT22;67539;48.752;12.922;2023-07-13T15:20:47;30.60;46.60
78289;DHT22;67539;48.752;12.922;2023-07-13T15:23:18;30.70;46.10
78289;DHT22;67539;48.752;12.922;2023-07-13T15:25:46;30.40;47.30
78289;DHT22;67539;48.752;12.922;2023-07-13T15:28:14;30.60;46.40
78289;DHT22;67539;48.752;12.922;2023-07-13T15:30:44;30.90;46.70
78289;DHT22;67539;48.752;12.922;2023-07-13T15:33:14;31.40;46.60
78289;DHT22;67539;48.752;12.922;2023-07-13T15:35:44;32.40;44.80
78289;DHT22;67539;48.752;12.922;2023-07-13T15:38:15;33.20;44.80
78289;DHT22;67539;48.752;12.922;2023-07-13T15:40:45;33.30;44.10
78289;DHT22;67539;48.752;12.922;2023-07-13T15:43:14;32.10;43.60